createdAt,value
2018-02-19T00:00:36.981Z,14.23
2018-02-19T00:03:05.346Z,19.70
2018-02-19T00:05:33.699Z,14.05
2018-02-19T00:08:01.768Z,12.95
2018-02-19T00:10:29.222Z,15.80
2018-02-19T00:12:56.674Z,18.42
2018-02-19T00:15:24.093Z,20.58
2018-02-19T00:17:51.530Z,20.95
2018-02-19T00:20:19.737Z,19.10
2018-02-19T00:22:47.649Z,15.10
2018-02-19T00:25:15.056Z,15.75
2018-02-19T00:27:42.955Z,17.67
2018-02-19T00:30:10.386Z,16.30
2018-02-19T00:32:38.214Z,12.73
2018-02-19T00:35:05.644Z,23.45
2018-02-19T00:37:33.078Z,11.80
2018-02-19T00:40:00.506Z,26.80
2018-02-19T00:42:27.933Z,20.05
2018-02-19T00:44:55.371Z,14.82
2018-02-19T00:47:22.804Z,15.15
2018-02-19T00:49:50.224Z,25.58
2018-02-19T00:52:17.722Z,13.85
2018-02-19T00:54:45.144Z,17.52
2018-02-19T00:57:12.571Z,15.85
2018-02-19T00:59:40.002Z,15.73
2018-02-19T01:02:07.424Z,14.07
2018-02-19T01:04:34.878Z,17.65
2018-02-19T01:07:02.426Z,13.35
2018-02-19T01:09:29.893Z,14.15
2018-02-19T01:11:57.712Z,11.73
2018-02-19T01:14:25.164Z,16.08
2018-02-19T01:16:52.585Z,13.25
2018-02-19T01:19:20.028Z,13.43
2018-02-19T01:21:47.453Z,18.67
2018-02-19T01:24:14.881Z,16.98
2018-02-19T01:26:42.304Z,18.60
2018-02-19T01:29:10.136Z,16.00
2018-02-19T01:31:37.558Z,15.35
2018-02-19T01:34:04.989Z,15.75
2018-02-19T01:36:32.815Z,19.00
2018-02-19T01:39:00.254Z,17.90
2018-02-19T01:41:27.681Z,13.30
2018-02-19T01:43:55.122Z,17.40
2018-02-19T01:46:22.950Z,17.20
2018-02-19T01:48:50.389Z,18.60
2018-02-19T01:51:17.811Z,18.15
2018-02-19T01:53:45.248Z,18.90
2018-02-19T01:56:13.069Z,18.25
2018-02-19T01:58:40.508Z,19.95
2018-02-19T02:01:07.946Z,18.05
2018-02-19T02:03:35.380Z,17.65
2018-02-19T02:06:03.267Z,18.35
2018-02-19T02:08:31.086Z,17.33
2018-02-19T02:10:58.531Z,12.55
2018-02-19T02:13:25.969Z,14.25
2018-02-19T02:15:53.392Z,13.50
2018-02-19T02:18:20.835Z,19.55
2018-02-19T02:20:48.652Z,14.98
2018-02-19T02:23:16.092Z,10.82
2018-02-19T02:25:43.532Z,13.25
2018-02-19T02:28:10.973Z,13.90
2018-02-19T02:30:38.788Z,12.85
2018-02-19T02:33:06.223Z,12.70
2018-02-19T02:35:33.677Z,12.35
2018-02-19T02:38:01.117Z,12.10
2018-02-19T02:40:28.545Z,21.05
2018-02-19T02:42:55.976Z,13.52
2018-02-19T02:45:23.401Z,11.82
2018-02-19T02:47:50.842Z,20.37
2018-02-19T02:50:18.272Z,13.55
2018-02-19T02:52:45.697Z,12.40
2018-02-19T02:55:13.129Z,16.83
2018-02-19T02:57:40.560Z,17.92
2018-02-19T03:00:08.001Z,14.68
2018-02-19T03:02:35.838Z,11.52
2018-02-19T03:05:03.288Z,18.35
2018-02-19T03:07:30.696Z,17.62
2018-02-19T03:09:58.152Z,16.50
2018-02-19T03:12:25.976Z,20.65
2018-02-19T03:14:53.423Z,17.37
2018-02-19T03:17:20.853Z,21.40
2018-02-19T03:19:48.313Z,19.40
2018-02-19T03:22:15.748Z,17.33
2018-02-19T03:24:43.188Z,23.08
2018-02-19T03:27:10.612Z,21.40
2018-02-19T03:29:38.043Z,15.27
2018-02-19T03:32:05.463Z,20.20
2018-02-19T03:34:33.293Z,22.95
2018-02-19T03:37:00.726Z,18.83
2018-02-19T03:39:28.152Z,19.08
2018-02-19T03:41:55.577Z,19.23
2018-02-19T03:44:23.026Z,28.42
2018-02-19T03:46:50.444Z,17.90
2018-02-19T03:49:17.876Z,18.70
2018-02-19T03:51:45.304Z,25.02
2018-02-19T03:54:12.732Z,22.08
2018-02-19T03:56:40.156Z,21.90
2018-02-19T03:59:07.592Z,23.08
2018-02-19T04:01:35.412Z,19.20
2018-02-19T04:04:02.892Z,19.33
2018-02-19T04:06:30.316Z,18.35
2018-02-19T04:08:57.748Z,23.52
2018-02-19T04:11:25.181Z,18.10
2018-02-19T04:13:53.008Z,19.95
2018-02-19T04:16:20.436Z,19.12
2018-02-19T04:18:47.869Z,19.42
2018-02-19T04:21:15.297Z,18.83
2018-02-19T04:23:42.747Z,24.33
2018-02-19T04:26:10.177Z,26.85
2018-02-19T04:28:37.617Z,20.88
2018-02-19T04:31:05.040Z,15.90
2018-02-19T04:33:32.869Z,24.27
2018-02-19T04:36:00.360Z,22.83
2018-02-19T04:38:27.818Z,26.95
2018-02-19T04:40:55.645Z,18.83
2018-02-19T04:43:23.145Z,21.25
2018-02-19T04:45:52.884Z,21.35
2018-02-19T04:48:20.348Z,17.95
2018-02-19T04:50:47.853Z,24.65
2018-02-19T04:53:15.265Z,18.73
2018-02-19T04:55:42.709Z,22.23
2018-02-19T04:58:10.145Z,22.65
2018-02-19T05:00:37.619Z,21.77
2018-02-19T05:03:05.072Z,21.15
2018-02-19T05:05:32.508Z,28.95
2018-02-19T05:08:00.367Z,24.63
2018-02-19T05:10:28.188Z,15.52
2018-02-19T05:12:55.616Z,27.00
2018-02-19T05:15:23.057Z,22.37
2018-02-19T05:17:50.521Z,31.37
2018-02-19T05:20:17.956Z,33.03
2018-02-19T05:22:45.814Z,22.08
2018-02-19T05:25:13.256Z,18.00
2018-02-19T05:27:40.756Z,22.10
2018-02-19T05:30:08.200Z,21.48
2018-02-19T05:32:36.020Z,20.27
2018-02-19T05:35:03.468Z,14.80
2018-02-19T05:37:30.905Z,20.92
2018-02-19T05:39:58.337Z,23.48
2018-02-19T05:42:26.166Z,20.40
2018-02-19T05:45:02.023Z,25.70
2018-02-19T05:47:29.451Z,19.33
2018-02-19T05:49:56.884Z,20.33
2018-02-19T05:52:24.317Z,18.83
2018-02-19T05:54:51.752Z,26.30
2018-02-19T05:57:19.545Z,25.48
2018-02-19T05:59:48.485Z,21.10
2018-02-19T06:02:16.148Z,16.75
2018-02-19T06:04:43.646Z,23.55
2018-02-19T06:07:11.970Z,22.67
2018-02-19T06:09:40.140Z,20.17
2018-02-19T06:12:07.585Z,22.75
2018-02-19T06:14:35.972Z,28.62
2018-02-19T06:17:03.554Z,21.92
2018-02-19T06:19:31.033Z,20.27
2018-02-19T06:21:58.494Z,20.17
2018-02-19T06:24:25.981Z,24.60
2018-02-19T06:26:53.441Z,23.10
2018-02-19T06:29:20.929Z,18.25
2018-02-19T06:31:48.405Z,20.92
2018-02-19T06:34:15.893Z,21.25
2018-02-19T06:36:43.737Z,19.98
2018-02-19T06:39:11.905Z,26.40
2018-02-19T06:41:40.739Z,26.02
2018-02-19T06:44:10.139Z,21.73
2018-02-19T06:46:38.383Z,22.75
2018-02-19T06:49:07.464Z,18.40
2018-02-19T06:51:34.986Z,19.50
2018-02-19T06:54:02.462Z,18.45
2018-02-19T06:56:30.041Z,27.67
2018-02-19T06:58:57.523Z,22.80
2018-02-19T07:01:25.102Z,23.33
2018-02-19T07:03:52.616Z,22.52
2018-02-19T07:06:20.074Z,25.48
2018-02-19T07:08:48.062Z,26.52
2018-02-19T07:11:15.518Z,24.08
2018-02-19T07:13:42.966Z,23.55
2018-02-19T07:16:10.550Z,26.85
2018-02-19T07:18:38.046Z,27.65
2018-02-19T07:21:06.102Z,22.35
2018-02-19T07:23:33.550Z,21.17
2018-02-19T07:26:01.021Z,21.45
2018-02-19T07:28:28.471Z,20.60
2018-02-19T07:30:55.919Z,25.05
2018-02-19T07:33:23.344Z,19.75
2018-02-19T07:35:50.840Z,22.13
2018-02-19T07:38:18.246Z,26.15
2018-02-19T07:40:45.706Z,20.23
2018-02-19T07:43:13.145Z,22.08
2018-02-19T07:45:40.576Z,23.05
2018-02-19T07:48:08.012Z,16.75
2018-02-19T07:50:35.449Z,20.88
2018-02-19T07:53:03.277Z,24.08
2018-02-19T07:55:30.865Z,25.45
2018-02-19T07:57:58.293Z,17.73
2018-02-19T08:00:25.886Z,20.20
2018-02-19T08:02:53.737Z,14.38
2018-02-19T08:05:21.172Z,19.73
2018-02-19T08:07:48.629Z,17.42
2018-02-19T08:10:16.061Z,21.73
2018-02-19T08:12:43.499Z,15.65
2018-02-19T08:15:10.941Z,16.50
2018-02-19T08:17:38.833Z,17.92
2018-02-19T08:20:06.261Z,20.12
2018-02-19T08:22:33.708Z,23.05
2018-02-19T08:25:01.531Z,21.40
2018-02-19T08:27:28.975Z,22.40
2018-02-19T08:29:56.408Z,25.62
2018-02-19T08:32:23.849Z,19.80
2018-02-19T08:34:51.691Z,29.40
2018-02-19T08:37:19.117Z,23.20
2018-02-19T08:39:46.562Z,20.98
2018-02-19T08:42:13.989Z,25.48
2018-02-19T08:44:41.436Z,23.33
2018-02-19T08:47:09.252Z,23.05
2018-02-19T08:49:36.684Z,17.62
2018-02-19T08:52:04.116Z,20.05
2018-02-19T08:54:31.952Z,17.00
2018-02-19T08:56:59.389Z,18.85
2018-02-19T08:59:26.816Z,17.52
2018-02-19T09:01:54.252Z,18.98
2018-02-19T09:04:22.084Z,19.90
2018-02-19T09:06:49.508Z,19.87
2018-02-19T09:09:16.946Z,16.33
2018-02-19T09:11:44.368Z,17.00
2018-02-19T09:14:12.785Z,15.93
2018-02-19T09:16:40.242Z,20.65
2018-02-19T09:19:07.676Z,26.62
2018-02-19T09:21:35.508Z,15.82
2018-02-19T09:24:02.932Z,17.90
2018-02-19T09:26:30.361Z,15.63
2018-02-19T09:28:57.784Z,15.82
2018-02-19T09:31:25.220Z,14.65
2018-02-19T09:33:52.645Z,16.92
2018-02-19T09:36:20.119Z,17.48
2018-02-19T09:38:47.540Z,17.08
2018-02-19T09:41:15.009Z,16.12
2018-02-19T09:43:42.421Z,19.08
2018-02-19T09:46:09.840Z,16.37
2018-02-19T09:48:37.315Z,16.10
2018-02-19T09:51:05.105Z,12.65
2018-02-19T09:53:32.533Z,19.08
2018-02-19T09:55:59.964Z,16.05
2018-02-19T09:58:27.415Z,17.27
2018-02-19T10:00:55.221Z,16.58
2018-02-19T10:03:22.644Z,13.02
2018-02-19T10:05:50.077Z,15.45
2018-02-19T10:08:17.899Z,14.43
2018-02-19T10:10:45.839Z,17.77
2018-02-19T10:13:13.277Z,17.08
2018-02-19T10:15:40.703Z,15.27
2018-02-19T10:18:08.136Z,15.50
2018-02-19T10:20:35.566Z,19.02
2018-02-19T10:23:03.020Z,18.55
2018-02-19T10:25:30.454Z,16.35
2018-02-19T10:27:58.442Z,19.12
2018-02-19T10:30:25.877Z,21.42
2018-02-19T10:32:53.306Z,16.20
2018-02-19T10:35:20.728Z,15.52
2018-02-19T10:37:48.156Z,13.48
2018-02-19T10:40:15.586Z,17.55
2018-02-19T10:42:43.024Z,15.68
2018-02-19T10:45:10.465Z,15.38
2018-02-19T10:47:37.926Z,16.42
2018-02-19T10:50:05.361Z,17.37
2018-02-19T10:52:32.792Z,14.93
2018-02-19T10:55:00.221Z,15.55
2018-02-19T10:57:28.047Z,14.23
2018-02-19T10:59:55.494Z,17.62
2018-02-19T11:02:22.932Z,17.83
2018-02-19T11:04:50.365Z,16.62
2018-02-19T11:07:17.796Z,21.60
2018-02-19T11:09:45.223Z,12.23
2018-02-19T11:12:12.656Z,14.43
2018-02-19T11:14:40.095Z,16.83
2018-02-19T11:17:07.921Z,13.18
2018-02-19T11:19:35.349Z,16.12
2018-02-19T11:22:02.773Z,19.35
2018-02-19T11:24:30.209Z,13.50
2018-02-19T11:26:57.637Z,14.98
2018-02-19T11:29:25.067Z,16.75
2018-02-19T11:31:52.497Z,14.18
2018-02-19T11:34:19.926Z,16.27
2018-02-19T11:36:47.355Z,16.73
2018-02-19T11:39:14.830Z,14.00
2018-02-19T11:41:42.228Z,13.52
2018-02-19T11:44:09.640Z,15.27
2018-02-19T11:46:37.082Z,14.73
2018-02-19T11:49:04.515Z,18.98
2018-02-19T11:51:31.953Z,16.10
2018-02-19T11:53:59.381Z,19.83
2018-02-19T11:56:26.817Z,19.62
2018-02-19T11:58:54.240Z,19.83
2018-02-19T12:01:21.678Z,16.75
2018-02-19T12:03:49.102Z,15.95
2018-02-19T12:06:16.537Z,12.77
2018-02-19T12:08:44.024Z,14.43
2018-02-19T12:11:11.417Z,18.83
2018-02-19T12:13:38.840Z,14.95
2018-02-19T12:16:06.671Z,17.55
2018-02-19T12:18:34.099Z,16.10
2018-02-19T12:21:01.538Z,12.73
2018-02-19T12:23:28.962Z,15.07
2018-02-19T12:25:56.396Z,12.60
2018-02-19T12:28:23.832Z,14.30
2018-02-19T12:30:51.264Z,13.90
2018-02-19T12:33:18.696Z,17.95
2018-02-19T12:35:46.532Z,15.63
2018-02-19T12:38:13.953Z,14.93
2018-02-19T12:40:41.386Z,20.42
2018-02-19T12:43:08.807Z,13.57
2018-02-19T12:45:36.241Z,17.92
2018-02-19T12:48:03.660Z,16.52
2018-02-19T12:50:31.108Z,17.60
2018-02-19T12:52:58.944Z,15.32
2018-02-19T12:55:26.377Z,18.33
2018-02-19T12:57:53.796Z,18.73
2018-02-19T13:00:21.233Z,15.90
2018-02-19T13:02:48.656Z,14.02
2018-02-19T13:05:16.094Z,14.68
2018-02-19T13:07:43.533Z,15.88
2018-02-19T13:10:10.978Z,13.40
2018-02-19T13:12:38.397Z,13.77
2018-02-19T13:15:05.826Z,20.77
2018-02-19T13:17:33.244Z,16.08
2018-02-19T13:20:00.677Z,15.50
2018-02-19T13:22:28.106Z,19.40
2018-02-19T13:24:55.531Z,17.70
2018-02-19T13:27:22.972Z,15.35
2018-02-19T13:29:50.388Z,12.37
2018-02-19T13:32:17.824Z,12.77
2018-02-19T13:34:45.257Z,14.38
2018-02-19T13:37:12.722Z,14.30
2018-02-19T13:39:40.157Z,15.57
2018-02-19T13:42:07.585Z,11.90
2018-02-19T13:44:35.016Z,14.90
2018-02-19T13:47:02.449Z,16.45
2018-02-19T13:49:29.957Z,13.88
2018-02-19T13:51:57.788Z,13.35
2018-02-19T13:54:25.216Z,12.93
2018-02-19T13:56:52.645Z,12.75
2018-02-19T13:59:20.072Z,13.45
2018-02-19T14:01:47.508Z,14.70
2018-02-19T14:04:14.929Z,13.90
2018-02-19T14:06:42.369Z,15.15
2018-02-19T14:09:09.785Z,13.98
2018-02-19T14:11:37.220Z,14.48
2018-02-19T14:14:04.652Z,15.32
2018-02-19T14:16:32.109Z,16.58
2018-02-19T14:18:59.544Z,14.55
2018-02-19T14:21:27.380Z,15.00
2018-02-19T14:23:54.817Z,11.20
2018-02-19T14:26:22.258Z,13.80
2018-02-19T14:28:49.685Z,16.87
2018-02-19T14:31:17.112Z,13.65
2018-02-19T14:33:44.546Z,19.87
2018-02-19T14:36:11.993Z,14.98
2018-02-19T14:38:39.423Z,13.65
2018-02-19T14:41:06.880Z,14.80
2018-02-19T14:43:34.301Z,15.15
2018-02-19T14:46:01.730Z,16.62
2018-02-19T14:48:29.968Z,14.02
2018-02-19T14:50:57.423Z,15.32
2018-02-19T14:53:24.853Z,22.25
2018-02-19T14:55:52.293Z,11.50
2018-02-19T14:58:19.714Z,13.07
2018-02-19T15:00:47.148Z,14.20
2018-02-19T15:03:14.572Z,12.98
2018-02-19T15:05:43.335Z,15.60
2018-02-19T15:08:10.766Z,14.40
2018-02-19T15:10:38.208Z,13.82
2018-02-19T15:13:05.629Z,18.70
2018-02-19T15:15:33.488Z,14.82
2018-02-19T15:18:00.912Z,15.23
2018-02-19T15:20:28.337Z,14.40
2018-02-19T15:22:55.764Z,12.60
2018-02-19T15:25:23.216Z,11.73
2018-02-19T15:27:50.622Z,12.95
2018-02-19T15:30:18.048Z,13.77
2018-02-19T15:32:45.870Z,9.73
2018-02-19T15:35:13.300Z,15.38
2018-02-19T15:37:40.743Z,13.23
2018-02-19T15:40:08.160Z,10.27
2018-02-19T15:42:35.983Z,11.38
2018-02-19T15:45:03.420Z,10.77
2018-02-19T15:47:30.840Z,12.10
2018-02-19T15:49:58.669Z,11.93
2018-02-19T15:52:26.105Z,10.63
2018-02-19T15:54:53.523Z,10.85
2018-02-19T15:57:20.947Z,11.15
2018-02-19T15:59:48.372Z,9.27
2018-02-19T16:02:15.800Z,10.52
2018-02-19T16:04:43.616Z,10.80
2018-02-19T16:07:11.107Z,12.60
2018-02-19T16:09:38.468Z,9.20
2018-02-19T16:12:06.296Z,9.43
2018-02-19T16:14:33.734Z,13.55
2018-02-19T16:17:01.160Z,9.98
2018-02-19T16:19:28.584Z,15.05
2018-02-19T16:21:56.026Z,7.68
2018-02-19T16:24:23.458Z,10.18
2018-02-19T16:26:50.892Z,8.57
2018-02-19T16:29:18.317Z,9.70
2018-02-19T16:31:45.745Z,15.55
2018-02-19T16:34:13.204Z,8.75
2018-02-19T16:36:40.637Z,10.88
2018-02-19T16:39:08.052Z,9.98
2018-02-19T16:41:35.873Z,12.10
2018-02-19T16:44:03.295Z,9.32
2018-02-19T16:46:30.717Z,11.93
2018-02-19T16:48:58.144Z,12.70
2018-02-19T16:51:25.592Z,11.80
2018-02-19T16:53:53.037Z,15.07
2018-02-19T16:56:20.469Z,10.40
2018-02-19T16:58:47.888Z,9.50
2018-02-19T17:01:15.326Z,8.73
2018-02-19T17:03:42.760Z,9.75
2018-02-19T17:06:10.176Z,13.40
2018-02-19T17:08:37.636Z,9.55
2018-02-19T17:11:05.057Z,9.80
2018-02-19T17:13:32.505Z,15.15
2018-02-19T17:15:59.941Z,11.98
2018-02-19T17:18:27.377Z,7.07
2018-02-19T17:20:54.808Z,10.07
2018-02-19T17:23:22.237Z,12.37
2018-02-19T17:25:49.652Z,9.50
2018-02-19T17:28:17.099Z,10.90
2018-02-19T17:30:44.536Z,11.30
2018-02-19T17:33:11.969Z,10.90
2018-02-19T17:35:39.397Z,12.05
2018-02-19T17:38:06.835Z,10.07
2018-02-19T17:40:34.254Z,9.25
2018-02-19T17:43:01.682Z,8.90
2018-02-19T17:45:29.153Z,11.55
2018-02-19T17:47:56.572Z,10.10
2018-02-19T17:50:23.996Z,14.20
2018-02-19T17:52:51.425Z,10.57
2018-02-19T17:55:18.851Z,10.30
2018-02-19T17:57:46.273Z,10.40
2018-02-19T18:00:13.708Z,10.65
2018-02-19T18:02:41.546Z,7.82
2018-02-19T18:05:08.993Z,12.60
2018-02-19T18:07:36.420Z,13.05
2018-02-19T18:10:03.844Z,12.40
2018-02-19T18:12:31.284Z,12.55
2018-02-19T18:14:58.717Z,10.32
2018-02-19T18:17:26.263Z,8.73
2018-02-19T18:19:53.695Z,13.32
2018-02-19T18:22:21.127Z,18.10
2018-02-19T18:24:48.557Z,10.65
2018-02-19T18:27:15.986Z,8.85
2018-02-19T18:29:43.404Z,11.07
2018-02-19T18:32:11.233Z,6.12
2018-02-19T18:34:38.666Z,10.50
2018-02-19T18:37:06.089Z,9.90
2018-02-19T18:39:33.514Z,9.32
2018-02-19T18:42:00.942Z,7.30
2018-02-19T18:44:41.316Z,10.90
2018-02-19T18:47:08.736Z,9.88
2018-02-19T18:49:36.152Z,10.85
2018-02-19T18:52:03.976Z,15.63
2018-02-19T18:54:31.405Z,18.00
2018-02-19T18:56:58.837Z,9.50
2018-02-19T18:59:26.657Z,17.95
2018-02-19T19:01:54.100Z,15.93
2018-02-19T19:04:21.555Z,11.07
2018-02-19T19:06:48.965Z,13.73
2018-02-19T19:09:28.577Z,11.63
2018-02-19T19:11:56.009Z,13.27
2018-02-19T19:14:23.442Z,11.05
2018-02-19T19:16:50.866Z,9.25
2018-02-19T19:19:18.285Z,11.60
2018-02-19T19:21:45.768Z,10.50
2018-02-19T19:24:13.192Z,10.73
2018-02-19T19:26:40.616Z,15.00
2018-02-19T19:29:08.106Z,16.35
2018-02-19T19:31:35.547Z,10.13
2018-02-19T19:34:03.381Z,7.95
2018-02-19T19:36:30.808Z,12.20
2018-02-19T19:38:58.298Z,12.35
2018-02-19T19:41:25.752Z,9.15
2018-02-19T19:43:53.613Z,16.75
2018-02-19T19:46:21.074Z,12.93
2018-02-19T19:48:48.529Z,12.63
2018-02-19T19:51:15.968Z,13.13
2018-02-19T19:53:43.416Z,13.10
2018-02-19T19:56:11.080Z,17.85
2018-02-19T19:58:39.197Z,15.07
2018-02-19T20:01:07.217Z,18.17
2018-02-19T20:03:35.100Z,18.10
2018-02-19T20:06:02.545Z,13.48
2018-02-19T20:08:30.002Z,21.25
2018-02-19T20:10:57.520Z,16.90
2018-02-19T20:13:25.664Z,17.08
2018-02-19T20:15:54.300Z,31.98
2018-02-19T20:18:21.736Z,26.17
2018-02-19T20:20:49.168Z,22.92
2018-02-19T20:23:17.227Z,26.92
2018-02-19T20:25:44.671Z,16.52
2018-02-19T20:28:12.125Z,16.08
2018-02-19T20:30:39.813Z,12.73
2018-02-19T20:33:07.253Z,21.15
2018-02-19T20:35:34.674Z,11.85
2018-02-19T20:38:02.138Z,12.77
2018-02-19T20:40:29.562Z,14.48
2018-02-19T20:42:58.121Z,16.25
2018-02-19T20:45:25.957Z,13.50
2018-02-19T20:47:53.389Z,13.90
2018-02-19T20:50:20.865Z,15.02
2018-02-19T20:52:48.307Z,22.10
2018-02-19T20:55:15.746Z,13.30
2018-02-19T20:57:47.062Z,13.43
2018-02-19T21:00:15.461Z,14.38
2018-02-19T21:02:42.913Z,15.18
2018-02-19T21:05:10.565Z,16.55
2018-02-19T21:07:38.026Z,14.85
2018-02-19T21:10:05.453Z,14.93
2018-02-19T21:12:33.713Z,16.67
2018-02-19T21:15:01.163Z,14.70
2018-02-19T21:17:28.604Z,15.10
2018-02-19T21:19:56.049Z,12.37
2018-02-19T21:22:23.494Z,12.02
2018-02-19T21:24:50.938Z,9.80
2018-02-19T21:27:18.385Z,18.50
2018-02-19T21:29:46.848Z,12.90
2018-02-19T21:32:14.308Z,13.10
2018-02-19T21:34:42.156Z,14.40
2018-02-19T21:37:09.604Z,13.20
2018-02-19T21:39:38.541Z,14.82
2018-02-19T21:42:06.135Z,18.35
2018-02-19T21:44:34.130Z,14.05
2018-02-19T21:47:02.080Z,17.45
2018-02-19T21:49:30.441Z,18.15
2018-02-19T21:51:58.418Z,17.73
2018-02-19T21:54:27.401Z,15.43
2018-02-19T21:56:54.877Z,20.80
2018-02-19T21:59:22.334Z,19.12
2018-02-19T22:01:50.326Z,12.75
2018-02-19T22:04:17.764Z,12.95
2018-02-19T22:06:45.210Z,16.60
2018-02-19T22:09:12.646Z,15.68
2018-02-19T22:11:40.072Z,16.48
2018-02-19T22:14:07.914Z,12.63
2018-02-19T22:16:35.374Z,14.87
2018-02-19T22:19:02.834Z,14.68
2018-02-19T22:21:30.261Z,21.05
2018-02-19T22:23:57.745Z,14.93
2018-02-19T22:26:25.844Z,14.52
2018-02-19T22:28:53.938Z,17.05
2018-02-19T22:31:21.385Z,15.85
2018-02-19T22:33:48.839Z,14.35
2018-02-19T22:36:16.293Z,13.85
2018-02-19T22:38:44.645Z,14.13
2018-02-19T22:41:12.720Z,11.77
2018-02-19T22:43:40.203Z,14.45
2018-02-19T22:46:07.634Z,13.85
2018-02-19T22:48:35.481Z,14.50
2018-02-19T22:51:02.932Z,15.70
2018-02-19T22:53:30.409Z,12.32
2018-02-19T22:56:00.584Z,12.45
2018-02-19T22:58:28.065Z,13.77
2018-02-19T23:00:56.210Z,11.90
2018-02-19T23:03:24.760Z,10.10
2018-02-19T23:05:52.598Z,12.13
2018-02-19T23:08:20.053Z,13.77
2018-02-19T23:10:47.492Z,13.52
2018-02-19T23:13:15.662Z,10.55
2018-02-19T23:15:43.101Z,10.63
2018-02-19T23:18:10.573Z,11.18
2018-02-19T23:20:38.014Z,12.25
2018-02-19T23:23:07.769Z,9.95
2018-02-19T23:25:35.229Z,12.43
2018-02-19T23:28:02.699Z,8.98
2018-02-19T23:30:30.467Z,9.35
2018-02-19T23:32:58.300Z,9.63
2018-02-19T23:35:26.107Z,8.23
2018-02-19T23:37:54.438Z,11.23
2018-02-19T23:40:21.884Z,10.65
2018-02-19T23:42:49.360Z,10.82
2018-02-19T23:45:16.801Z,13.90
2018-02-19T23:47:45.254Z,13.35
2018-02-19T23:50:12.663Z,10.20
2018-02-19T23:52:40.093Z,18.27
2018-02-19T23:55:07.533Z,11.50
2018-02-19T23:57:34.956Z,12.80
